createdAt,value
2018-09-03T00:00:25.924Z,31.80
2018-09-03T00:02:54.873Z,32.63
2018-09-03T00:05:23.731Z,35.43
2018-09-03T00:07:52.847Z,29.10
2018-09-03T00:10:22.493Z,27.60
2018-09-03T00:12:51.474Z,29.00
2018-09-03T00:15:20.445Z,34.63
2018-09-03T00:17:49.435Z,36.67
2018-09-03T00:20:18.460Z,35.67
2018-09-03T00:22:47.524Z,42.27
2018-09-03T00:25:16.542Z,40.23
2018-09-03T00:27:45.598Z,42.03
2018-09-03T00:30:14.652Z,40.37
2018-09-03T00:32:48.940Z,38.80
2018-09-03T00:42:17.215Z,45.27
2018-09-03T00:45:53.885Z,44.03
2018-09-03T00:48:22.302Z,46.60
2018-09-03T00:50:50.692Z,42.57
2018-09-03T00:53:19.128Z,40.37
2018-09-03T00:55:47.580Z,33.57
2018-09-03T00:58:16.181Z,42.97
2018-09-03T01:00:44.704Z,42.20
2018-09-03T01:03:13.128Z,38.23
2018-09-03T01:05:41.548Z,39.00
2018-09-03T01:08:10.071Z,38.10
2018-09-03T01:10:38.553Z,37.97
2018-09-03T01:13:06.930Z,40.00
2018-09-03T01:15:35.349Z,46.63
2018-09-03T01:18:03.740Z,46.27
2018-09-03T01:20:32.626Z,45.10
2018-09-03T01:23:01.046Z,38.30
2018-09-03T01:25:29.435Z,40.27
2018-09-03T01:27:57.820Z,43.40
2018-09-03T01:30:26.246Z,39.70
2018-09-03T01:32:54.612Z,51.90
2018-09-03T01:35:23.035Z,52.37
2018-09-03T01:37:51.425Z,42.27
2018-09-03T01:40:19.826Z,35.67
2018-09-03T01:42:48.200Z,38.50
2018-09-03T01:45:16.611Z,34.90
2018-09-03T01:47:44.978Z,34.20
2018-09-03T01:50:13.393Z,19.60
2018-09-03T01:52:41.835Z,39.57
2018-09-03T01:55:10.219Z,31.07
2018-09-03T01:57:38.571Z,36.53
2018-09-03T02:00:07.706Z,32.60
2018-09-03T02:02:36.152Z,35.37
2018-09-03T02:05:04.629Z,27.70
2018-09-03T02:07:33.062Z,26.40
2018-09-03T02:10:01.467Z,20.80
2018-09-03T02:12:29.888Z,37.20
2018-09-03T02:14:58.294Z,35.37
2018-09-03T02:17:26.829Z,35.30
2018-09-03T02:19:55.215Z,35.23
2018-09-03T02:22:23.661Z,31.60
2018-09-03T02:24:52.072Z,34.00
2018-09-03T02:27:20.533Z,32.00
2018-09-03T02:29:48.965Z,32.70
2018-09-03T02:32:17.334Z,24.73
2018-09-03T02:34:45.713Z,38.13
2018-09-03T02:37:14.222Z,31.40
2018-09-03T02:39:42.595Z,33.27
2018-09-03T02:42:11.015Z,36.83
2018-09-03T02:44:39.431Z,31.13
2018-09-03T02:47:07.857Z,30.80
2018-09-03T02:49:36.697Z,20.30
2018-09-03T02:52:05.221Z,27.60
2018-09-03T02:54:33.644Z,15.20
2018-09-03T02:57:02.656Z,25.37
2018-09-03T02:59:31.134Z,32.90
2018-09-03T03:01:59.516Z,17.97
2018-09-03T03:04:28.212Z,41.00
2018-09-03T03:06:56.629Z,28.30
2018-09-03T03:09:25.052Z,36.17
2018-09-03T03:11:53.671Z,31.40
2018-09-03T03:14:22.059Z,37.27
2018-09-03T03:16:50.453Z,32.87
2018-09-03T03:19:18.948Z,27.63
2018-09-03T03:21:47.393Z,32.67
2018-09-03T03:24:15.791Z,31.63
2018-09-03T03:26:44.176Z,39.20
2018-09-03T03:29:12.660Z,39.40
2018-09-03T03:31:41.065Z,36.90
2018-09-03T03:34:09.512Z,44.23
2018-09-03T03:36:37.917Z,42.80
2018-09-03T03:39:07.756Z,41.93
2018-09-03T03:41:36.480Z,32.40
2018-09-03T03:44:05.202Z,36.07
2018-09-03T03:46:33.806Z,42.53
2018-09-03T03:49:02.432Z,25.73
2018-09-03T03:51:30.832Z,25.23
2018-09-03T03:53:59.468Z,23.13
2018-09-03T03:56:27.866Z,35.93
2018-09-03T03:58:56.421Z,42.33
2018-09-03T04:01:25.063Z,23.37
2018-09-03T04:03:53.537Z,27.90
2018-09-03T04:06:21.951Z,43.03
2018-09-03T04:08:50.360Z,39.17
2018-09-03T04:11:18.747Z,44.77
2018-09-03T04:13:47.283Z,35.73
2018-09-03T04:16:15.754Z,37.40
2018-09-03T04:18:44.203Z,45.00
2018-09-03T04:21:12.593Z,20.10
2018-09-03T04:23:40.997Z,42.83
2018-09-03T04:26:09.450Z,37.13
2018-09-03T04:28:37.879Z,39.60
2018-09-03T04:31:06.333Z,36.13
2018-09-03T04:33:34.709Z,42.30
2018-09-03T04:36:03.611Z,46.00
2018-09-03T04:38:32.240Z,47.73
2018-09-03T04:41:00.650Z,44.23
2018-09-03T04:43:29.128Z,41.20
2018-09-03T04:45:58.103Z,42.63
2018-09-03T04:48:26.644Z,41.27
2018-09-03T04:50:55.079Z,39.97
2018-09-03T04:53:23.530Z,37.13
2018-09-03T04:55:52.036Z,40.77
2018-09-03T04:58:20.603Z,40.27
2018-09-03T05:00:49.178Z,38.90
2018-09-03T05:03:17.585Z,36.20
2018-09-03T05:05:46.378Z,53.13
2018-09-03T05:08:14.782Z,37.63
2018-09-03T05:10:43.260Z,33.90
2018-09-03T05:13:11.721Z,39.70
2018-09-03T05:15:40.163Z,44.30
2018-09-03T05:18:08.605Z,31.00
2018-09-03T05:20:37.162Z,40.00
2018-09-03T05:23:06.047Z,40.90
2018-09-03T05:25:34.563Z,35.90
2018-09-03T05:28:02.918Z,31.63
2018-09-03T05:30:31.650Z,37.17
2018-09-03T05:33:00.081Z,45.63
2018-09-03T05:35:28.536Z,36.87
2018-09-03T05:37:56.903Z,41.13
2018-09-03T05:40:25.300Z,46.30
2018-09-03T05:42:53.684Z,26.73
2018-09-03T05:45:22.266Z,42.80
2018-09-03T05:47:50.655Z,37.20
2018-09-03T05:50:19.188Z,35.60
2018-09-03T05:52:47.671Z,39.27
2018-09-03T05:55:16.117Z,46.27
2018-09-03T05:57:44.699Z,38.80
2018-09-03T06:00:13.247Z,34.50
2018-09-03T06:02:41.748Z,33.50
2018-09-03T06:05:10.198Z,37.67
2018-09-03T06:07:40.201Z,37.40
2018-09-03T06:10:08.694Z,33.50
2018-09-03T06:12:37.267Z,39.37
2018-09-03T06:15:05.977Z,36.43
2018-09-03T06:17:34.412Z,37.13
2018-09-03T06:20:02.983Z,39.03
2018-09-03T06:22:31.342Z,24.00
2018-09-03T06:24:59.804Z,37.27
2018-09-03T06:27:28.218Z,33.10
2018-09-03T06:29:56.602Z,42.70
2018-09-03T06:32:25.278Z,39.43
2018-09-03T06:34:53.727Z,30.93
2018-09-03T06:37:22.302Z,43.27
2018-09-03T06:39:50.699Z,42.90
2018-09-03T06:42:19.101Z,32.27
2018-09-03T06:44:47.679Z,28.60
2018-09-03T06:47:16.138Z,35.90
2018-09-03T06:49:45.483Z,27.93
2018-09-03T06:52:14.345Z,34.63
2018-09-03T06:54:43.805Z,40.67
2018-09-03T06:57:12.166Z,52.90
2018-09-03T06:59:40.646Z,38.97
2018-09-03T07:02:09.239Z,32.10
2018-09-03T07:04:37.924Z,34.03
2018-09-03T07:07:06.982Z,19.10
2018-09-03T07:09:36.410Z,35.40
2018-09-03T07:12:04.785Z,40.77
2018-09-03T07:14:33.219Z,33.43
2018-09-03T07:17:01.709Z,49.53
2018-09-03T07:19:30.321Z,50.33
2018-09-03T07:21:59.127Z,23.17
2018-09-03T07:24:27.599Z,49.73
2018-09-03T07:26:56.045Z,55.57
2018-09-03T07:29:24.489Z,64.23
2018-09-03T07:31:52.869Z,43.60
2018-09-03T07:34:21.221Z,43.20
2018-09-03T07:36:49.594Z,50.73
2018-09-03T07:39:17.929Z,40.93
2018-09-03T07:41:46.343Z,43.20
2018-09-03T07:44:14.943Z,39.53
2018-09-03T07:46:43.347Z,47.57
2018-09-03T07:49:11.860Z,50.37
2018-09-03T07:51:40.235Z,51.77
2018-09-03T07:54:08.612Z,45.53
2018-09-03T07:56:37.006Z,40.23
2018-09-03T07:59:05.676Z,42.30
2018-09-03T08:01:34.068Z,48.67
2018-09-03T08:04:02.569Z,41.80
2018-09-03T08:06:31.167Z,45.87
2018-09-03T08:08:59.615Z,30.20
2018-09-03T08:11:27.982Z,47.57
2018-09-03T08:13:56.336Z,50.30
2018-09-03T08:16:24.784Z,32.13
2018-09-03T08:18:53.208Z,46.53
2018-09-03T08:21:21.812Z,32.47
2018-09-03T08:23:50.234Z,39.40
2018-09-03T08:26:19.409Z,26.60
2018-09-03T08:28:48.401Z,25.87
2018-09-03T08:31:16.809Z,29.27
2018-09-03T08:33:46.009Z,24.93
2018-09-03T08:36:14.659Z,25.97
2018-09-03T08:38:43.067Z,42.17
2018-09-03T08:41:11.447Z,35.90
2018-09-03T08:43:40.534Z,39.23
2018-09-03T08:46:08.994Z,27.67
2018-09-03T08:48:37.409Z,36.93
2018-09-03T08:51:05.884Z,37.27
2018-09-03T08:53:34.538Z,38.93
2018-09-03T08:56:03.018Z,42.07
2018-09-03T08:58:31.737Z,44.50
2018-09-03T09:01:00.150Z,35.00
2018-09-03T09:03:34.183Z,38.53
2018-09-03T09:06:02.608Z,36.43
2018-09-03T09:08:31.208Z,39.77
2018-09-03T09:10:59.672Z,41.57
2018-09-03T09:13:28.093Z,41.00
2018-09-03T09:15:56.495Z,29.10
2018-09-03T09:18:24.896Z,38.53
2018-09-03T09:20:53.389Z,33.70
2018-09-03T09:23:21.804Z,37.33
2018-09-03T09:25:50.288Z,34.07
2018-09-03T09:28:18.727Z,38.17
2018-09-03T09:30:47.152Z,28.20
2018-09-03T09:33:16.125Z,35.63
2018-09-03T09:35:45.196Z,31.40
2018-09-03T09:38:13.606Z,25.37
2018-09-03T09:40:42.079Z,25.83
2018-09-03T09:43:10.806Z,25.53
2018-09-03T09:45:38.959Z,32.53
2018-09-03T09:48:07.386Z,24.27
2018-09-03T09:50:35.815Z,31.60
2018-09-03T09:53:04.289Z,26.77
2018-09-03T09:55:32.882Z,21.23
2018-09-03T09:58:01.260Z,27.70
2018-09-03T10:00:34.788Z,28.80
2018-09-03T10:03:03.245Z,31.23
2018-09-03T10:05:31.696Z,25.03
2018-09-03T10:08:00.050Z,26.67
2018-09-03T10:10:28.422Z,32.33
2018-09-03T10:12:56.883Z,31.73
2018-09-03T10:15:25.310Z,21.73
2018-09-03T10:17:54.572Z,20.23
2018-09-03T10:20:23.000Z,24.20
2018-09-03T10:22:51.561Z,29.33
2018-09-03T10:25:19.910Z,35.00
2018-09-03T10:27:48.505Z,29.13
2018-09-03T10:30:16.969Z,29.00
2018-09-03T10:32:45.457Z,26.57
2018-09-03T10:35:14.036Z,29.83
2018-09-03T10:37:42.433Z,30.70
2018-09-03T10:40:10.830Z,30.40
2018-09-03T10:42:39.224Z,30.90
2018-09-03T10:45:08.353Z,29.10
2018-09-03T10:47:36.947Z,30.90
2018-09-03T10:50:05.610Z,26.97
2018-09-03T10:52:34.786Z,32.50
2018-09-03T10:55:03.184Z,31.37
2018-09-03T10:57:31.654Z,28.50
2018-09-03T11:00:00.112Z,26.87
2018-09-03T11:02:29.208Z,25.63
2018-09-03T11:04:57.702Z,20.83
2018-09-03T11:07:26.133Z,25.20
2018-09-03T11:09:55.097Z,24.87
2018-09-03T11:12:23.529Z,26.63
2018-09-03T11:14:52.042Z,26.37
2018-09-03T11:17:20.451Z,27.23
2018-09-03T11:19:53.337Z,34.73
2018-09-03T11:22:21.800Z,26.93
2018-09-03T11:24:50.381Z,29.47
2018-09-03T11:27:18.803Z,23.67
2018-09-03T11:29:47.217Z,28.87
2018-09-03T11:32:15.662Z,31.60
2018-09-03T11:34:44.059Z,31.43
2018-09-03T11:37:12.578Z,32.20
2018-09-03T11:39:41.001Z,20.60
2018-09-03T11:42:09.473Z,28.97
2018-09-03T11:44:38.391Z,33.30
2018-09-03T11:47:07.126Z,28.43
2018-09-03T11:49:35.565Z,27.80
2018-09-03T11:52:03.992Z,29.23
2018-09-03T11:54:32.584Z,24.70
2018-09-03T11:57:00.898Z,31.40
2018-09-03T11:59:29.505Z,18.37
2018-09-03T12:01:57.804Z,29.20
2018-09-03T12:04:26.201Z,30.57
2018-09-03T12:06:54.538Z,29.00
2018-09-03T12:09:22.892Z,27.23
2018-09-03T12:11:51.271Z,23.47
2018-09-03T12:14:26.558Z,9.80
2018-09-03T12:16:55.088Z,28.37
2018-09-03T12:19:23.498Z,27.83
2018-09-03T12:21:51.876Z,10.93
2018-09-03T12:24:20.839Z,24.37
2018-09-03T12:26:49.273Z,24.27
2018-09-03T12:29:17.732Z,28.97
2018-09-03T12:31:46.193Z,19.43
2018-09-03T12:34:14.590Z,24.40
2018-09-03T12:36:43.069Z,18.77
2018-09-03T12:39:11.687Z,20.53
2018-09-03T12:41:40.242Z,23.13
2018-09-03T12:44:08.670Z,26.20
2018-09-03T12:46:37.111Z,22.00
2018-09-03T12:49:05.473Z,22.10
2018-09-03T12:51:33.838Z,22.10
2018-09-03T12:54:02.306Z,25.63
2018-09-03T12:56:30.917Z,21.83
2018-09-03T12:58:59.312Z,21.97
2018-09-03T13:01:28.410Z,19.37
2018-09-03T13:03:56.801Z,22.53
2018-09-03T13:06:25.136Z,23.07
2018-09-03T13:08:53.518Z,32.10
2018-09-03T13:11:21.939Z,23.93
2018-09-03T13:13:50.323Z,19.00
2018-09-03T13:16:18.743Z,17.90
2018-09-03T13:18:47.173Z,19.67
2018-09-03T13:21:15.539Z,17.90
2018-09-03T13:23:44.528Z,9.87
2018-09-03T13:26:12.921Z,21.97
2018-09-03T13:28:41.327Z,12.87
2018-09-03T13:31:09.716Z,8.83
2018-09-03T13:33:38.138Z,17.57
2018-09-03T13:36:06.605Z,15.70
2018-09-03T13:38:35.134Z,20.53
2018-09-03T13:41:03.587Z,13.57
2018-09-03T13:43:31.972Z,9.40
2018-09-03T13:46:00.512Z,10.00
2018-09-03T13:48:28.848Z,12.63
2018-09-03T13:50:57.235Z,9.93
2018-09-03T13:53:25.621Z,10.53
2018-09-03T13:55:54.052Z,8.80
2018-09-03T13:58:22.399Z,10.93
2018-09-03T14:00:51.022Z,10.53
2018-09-03T14:03:19.358Z,10.40
2018-09-03T14:05:48.243Z,9.93
2018-09-03T14:08:16.851Z,9.53
2018-09-03T14:10:45.269Z,7.93
2018-09-03T14:13:13.772Z,9.17
2018-09-03T14:15:42.384Z,9.60
2018-09-03T14:18:10.908Z,8.40
2018-09-03T14:20:39.342Z,7.57
2018-09-03T14:23:07.830Z,12.30
2018-09-03T14:25:36.406Z,9.53
2018-09-03T14:28:04.766Z,9.57
2018-09-03T14:30:33.906Z,9.57
2018-09-03T14:33:02.882Z,5.33
2018-09-03T14:35:31.317Z,9.67
2018-09-03T14:37:59.743Z,5.40
2018-09-03T14:40:28.225Z,11.20
2018-09-03T14:42:56.618Z,10.03
2018-09-03T14:45:25.139Z,9.00
2018-09-03T14:47:53.476Z,7.23
2018-09-03T14:50:22.419Z,5.57
2018-09-03T14:52:51.579Z,10.03
2018-09-03T14:55:20.441Z,10.33
2018-09-03T14:57:48.867Z,11.43
2018-09-03T15:00:17.218Z,8.43
2018-09-03T15:02:45.660Z,5.67
2018-09-03T15:05:14.010Z,8.47
2018-09-03T15:07:42.403Z,9.30
2018-09-03T15:10:11.276Z,10.50
2018-09-03T15:12:39.678Z,8.77
2018-09-03T15:15:08.391Z,9.17
2018-09-03T15:17:36.716Z,10.73
2018-09-03T15:20:05.863Z,8.93
2018-09-03T15:22:34.270Z,8.90
2018-09-03T15:25:02.901Z,8.93
2018-09-03T15:27:31.291Z,10.47
2018-09-03T15:29:59.713Z,8.90
2018-09-03T15:32:29.191Z,11.23
2018-09-03T15:34:57.538Z,10.30
2018-09-03T15:37:25.911Z,13.50
2018-09-03T15:39:54.434Z,9.47
2018-09-03T15:42:22.885Z,9.40
2018-09-03T15:44:51.355Z,10.97
2018-09-03T15:47:19.766Z,8.97
2018-09-03T15:49:48.185Z,11.53
2018-09-03T15:52:16.693Z,8.60
2018-09-03T15:54:45.134Z,7.50
2018-09-03T15:57:13.629Z,8.20
2018-09-03T15:59:42.184Z,7.40
2018-09-03T16:02:10.610Z,8.17
2018-09-03T16:04:39.029Z,6.20
2018-09-03T16:07:07.637Z,6.47
2018-09-03T16:09:36.180Z,6.60
2018-09-03T16:12:04.581Z,6.90
2018-09-03T16:14:33.000Z,7.37
2018-09-03T16:17:01.488Z,7.20
2018-09-03T16:19:29.902Z,5.57
2018-09-03T16:21:58.409Z,5.97
2018-09-03T16:24:26.843Z,7.33
2018-09-03T16:26:55.228Z,6.40
2018-09-03T16:29:23.653Z,6.83
2018-09-03T16:31:52.103Z,5.17
2018-09-03T16:34:20.448Z,6.27
2018-09-03T16:36:48.827Z,7.00
2018-09-03T16:39:17.353Z,6.97
2018-09-03T16:41:46.016Z,6.63
2018-09-03T16:44:14.361Z,5.67
2018-09-03T16:46:42.753Z,6.17
2018-09-03T16:49:11.226Z,6.63
2018-09-03T16:51:39.849Z,6.50
2018-09-03T16:54:08.637Z,6.80
2018-09-03T16:56:37.087Z,6.93
2018-09-03T16:59:05.487Z,7.53
2018-09-03T17:01:34.090Z,7.30
2018-09-03T17:04:02.246Z,7.00
2018-09-03T17:06:30.705Z,7.00
2018-09-03T17:08:59.134Z,7.13
2018-09-03T17:11:27.657Z,6.87
2018-09-03T17:13:56.101Z,8.63
2018-09-03T17:16:24.905Z,6.80
2018-09-03T17:18:53.723Z,7.23
2018-09-03T17:21:22.267Z,7.23
2018-09-03T17:23:50.676Z,7.70
2018-09-03T17:26:19.317Z,6.90
2018-09-03T17:28:47.703Z,8.10
2018-09-03T17:31:16.165Z,7.70
2018-09-03T17:33:44.847Z,7.33
2018-09-03T17:36:13.337Z,8.17
2018-09-03T17:38:41.998Z,13.43
2018-09-03T17:41:10.402Z,12.80
2018-09-03T17:43:38.866Z,9.53
2018-09-03T17:46:07.268Z,12.50
2018-09-03T17:48:35.757Z,8.87
2018-09-03T17:51:04.234Z,8.87
2018-09-03T17:53:32.659Z,8.27
2018-09-03T17:56:01.124Z,10.03
2018-09-03T17:58:29.712Z,7.50
2018-09-03T18:00:58.285Z,10.13
2018-09-03T18:03:26.725Z,8.33
2018-09-03T18:05:55.222Z,8.70
2018-09-03T18:08:23.702Z,10.23
2018-09-03T18:10:52.099Z,10.53
2018-09-03T18:13:20.489Z,8.20
2018-09-03T18:15:49.352Z,9.80
2018-09-03T18:18:18.169Z,14.57
2018-09-03T18:20:46.669Z,12.83
2018-09-03T18:23:15.093Z,11.10
2018-09-03T18:25:43.502Z,9.60
2018-09-03T18:28:12.726Z,12.00
2018-09-03T18:30:41.204Z,13.63
2018-09-03T18:33:09.629Z,12.93
2018-09-03T18:35:38.007Z,14.70
2018-09-03T18:38:06.490Z,14.43
2018-09-03T18:40:34.962Z,16.17
2018-09-03T18:43:03.344Z,14.10
2018-09-03T18:45:31.789Z,15.50
2018-09-03T18:48:00.392Z,15.40
2018-09-03T18:50:28.814Z,13.07
2018-09-03T18:52:57.223Z,16.17
2018-09-03T18:55:25.849Z,23.57
2018-09-03T18:57:54.229Z,14.77
2018-09-03T19:00:22.727Z,14.80
2018-09-03T19:02:51.125Z,19.20
2018-09-03T19:05:20.089Z,15.10
2018-09-03T19:07:48.629Z,23.80
2018-09-03T19:10:18.435Z,15.97
2018-09-03T19:12:46.885Z,15.40
2018-09-03T19:15:15.446Z,14.67
2018-09-03T19:17:43.837Z,12.93
2018-09-03T19:20:12.230Z,20.57
2018-09-03T19:22:40.658Z,24.43
2018-09-03T19:25:09.097Z,18.10
2018-09-03T19:27:37.580Z,18.73
2018-09-03T19:30:06.015Z,21.13
2018-09-03T19:32:34.437Z,17.80
2018-09-03T19:35:03.021Z,18.23
2018-09-03T19:37:31.574Z,19.00
2018-09-03T19:40:00.016Z,12.97
2018-09-03T19:42:29.477Z,18.83
2018-09-03T19:44:58.104Z,18.20
2018-09-03T19:47:26.523Z,17.87
2018-09-03T19:49:54.917Z,22.10
2018-09-03T19:52:23.376Z,21.47
2018-09-03T19:54:51.823Z,17.17
2018-09-03T19:57:20.212Z,17.37
2018-09-03T19:59:48.888Z,21.77
2018-09-03T20:02:17.410Z,18.77
2018-09-03T20:04:45.886Z,20.00
2018-09-03T20:07:14.799Z,18.37
2018-09-03T20:09:43.318Z,18.67
2018-09-03T20:12:11.842Z,17.50
2018-09-03T20:14:40.256Z,20.30
2018-09-03T20:17:08.683Z,21.60
2018-09-03T20:19:37.504Z,18.67
2018-09-03T20:22:11.798Z,17.47
2018-09-03T20:24:40.675Z,21.37
2018-09-03T20:27:09.129Z,21.33
2018-09-03T20:29:37.543Z,18.00
2018-09-03T20:32:05.989Z,19.50
2018-09-03T20:34:34.384Z,21.73
2018-09-03T20:37:03.121Z,17.17
2018-09-03T20:39:31.518Z,24.17
2018-09-03T20:41:59.923Z,20.30
2018-09-03T20:44:28.389Z,19.97
2018-09-03T20:46:56.790Z,20.20
2018-09-03T20:49:25.420Z,21.80
2018-09-03T20:51:53.917Z,23.03
2018-09-03T20:54:23.368Z,23.17
2018-09-03T20:56:51.840Z,21.33
2018-09-03T20:59:20.855Z,23.60
2018-09-03T21:01:49.298Z,24.53
2018-09-03T21:04:17.839Z,23.17
2018-09-03T21:06:46.363Z,20.83
2018-09-03T21:09:14.828Z,21.00
2018-09-03T21:11:43.272Z,24.50
2018-09-03T21:14:11.681Z,22.43
2018-09-03T21:16:40.112Z,23.03
2018-09-03T21:19:08.526Z,23.77
2018-09-03T21:21:36.984Z,24.27
2018-09-03T21:24:05.466Z,23.23
2018-09-03T21:26:33.875Z,23.17
2018-09-03T21:29:02.312Z,24.17
2018-09-03T21:31:30.748Z,22.40
2018-09-03T21:33:59.168Z,22.63
2018-09-03T21:36:27.785Z,25.47
2018-09-03T21:38:56.225Z,20.80
2018-09-03T21:41:24.676Z,22.43
2018-09-03T21:43:53.073Z,20.40
2018-09-03T21:46:21.625Z,19.53
2018-09-03T21:48:50.108Z,25.97
2018-09-03T21:51:18.486Z,23.63
2018-09-03T21:53:46.955Z,20.83
2018-09-03T21:56:15.476Z,23.57
2018-09-03T21:58:43.970Z,20.40
2018-09-03T22:01:12.438Z,26.33
2018-09-03T22:03:40.892Z,19.50
2018-09-03T22:06:09.299Z,26.23
2018-09-03T22:08:38.063Z,24.83
2018-09-03T22:11:06.728Z,17.03
2018-09-03T22:13:35.109Z,23.10
2018-09-03T22:16:03.530Z,23.30
2018-09-03T22:18:32.191Z,22.10
2018-09-03T22:21:00.723Z,28.97
2018-09-03T22:23:29.124Z,17.80
2018-09-03T22:25:57.596Z,23.20
2018-09-03T22:28:26.031Z,22.80
2018-09-03T22:30:54.418Z,21.40
2018-09-03T22:33:22.818Z,25.87
2018-09-03T22:35:51.197Z,29.97
2018-09-03T22:38:19.615Z,26.10
2018-09-03T22:40:48.046Z,18.50
2018-09-03T22:43:16.529Z,26.10
2018-09-03T22:45:44.963Z,19.80
2018-09-03T22:48:13.463Z,21.30
2018-09-03T22:50:41.862Z,19.70
2018-09-03T22:53:10.263Z,24.63
2018-09-03T22:55:38.689Z,22.30
2018-09-03T22:58:07.099Z,18.40
2018-09-03T23:00:35.552Z,20.17
2018-09-03T23:03:03.968Z,24.90
2018-09-03T23:05:32.395Z,20.93
2018-09-03T23:08:00.842Z,22.70
2018-09-03T23:10:29.291Z,23.20
2018-09-03T23:12:57.923Z,24.87
2018-09-03T23:15:26.368Z,29.90
2018-09-03T23:17:54.797Z,28.27
2018-09-03T23:20:23.254Z,23.43
2018-09-03T23:22:51.684Z,23.93
2018-09-03T23:25:20.245Z,21.30
2018-09-03T23:27:48.743Z,30.20
2018-09-03T23:30:17.260Z,24.10
2018-09-03T23:32:45.663Z,26.67
2018-09-03T23:35:14.071Z,30.67
2018-09-03T23:37:42.569Z,27.63
2018-09-03T23:40:11.342Z,30.00
2018-09-03T23:42:39.818Z,29.37
2018-09-03T23:45:08.291Z,26.10
2018-09-03T23:47:36.719Z,26.53
2018-09-03T23:50:05.208Z,29.70
2018-09-03T23:52:33.602Z,32.60
2018-09-03T23:55:02.096Z,25.43
2018-09-03T23:57:30.483Z,28.20
2018-09-03T23:59:58.960Z,26.23
